sensor_id;sensor_type;location;lat;lon;timestamp;P1;durP1;ratioP1;P2;durP2;ratioP2
79592;SDS011;69074;45.164;9.704;2024-03-17T00:01:26;36.5;;;32.6;;
79592;SDS011;69074;45.164;9.704;2024-03-17T00:03:51;36.5;;;32.6;;
79592;SDS011;69074;45.164;9.704;2024-03-17T00:06:16;36.5;;;32.6;;
79592;SDS011;69074;45.164;9.704;2024-03-17T00:08:41;36.5;;;32.6;;
79592;SDS011;69074;45.164;9.704;2024-03-17T00:11:06;36.5;;;32.6;;
79592;SDS011;69074;45.164;9.704;2024-03-17T00:13:31;36.5;;;32.6;;
79592;SDS011;69074;45.164;9.704;2024-03-17T00:15:57;45.4;;;40.5;;
79592;SDS011;69074;45.164;9.704;2024-03-17T00:18:21;45.4;;;40.5;;
79592;SDS011;69074;45.164;9.704;2024-03-17T00:20:46;45.4;;;40.5;;
79592;SDS011;69074;45.164;9.704;2024-03-17T00:23:11;45.4;;;40.5;;
79592;SDS011;69074;45.164;9.704;2024-03-17T00:25:36;45.4;;;40.5;;
79592;SDS011;69074;45.164;9.704;2024-03-17T00:28:01;45.4;;;40.5;;
79592;SDS011;69074;45.164;9.704;2024-03-17T00:30:26;45.4;;;40.5;;
79592;SDS011;69074;45.164;9.704;2024-03-17T00:32:51;38.2;;;33.4;;
79592;SDS011;69074;45.164;9.704;2024-03-17T00:35:16;38.2;;;33.4;;
79592;SDS011;69074;45.164;9.704;2024-03-17T00:37:41;38.2;;;33.4;;
79592;SDS011;69074;45.164;9.704;2024-03-17T00:40:06;38.2;;;33.4;;
79592;SDS011;69074;45.164;9.704;2024-03-17T00:42:31;38.2;;;33.4;;
79592;SDS011;69074;45.164;9.704;2024-03-17T00:44:56;38.2;;;33.4;;
79592;SDS011;69074;45.164;9.704;2024-03-17T00:47:21;34.3;;;30.6;;
79592;SDS011;69074;45.164;9.704;2024-03-17T00:49:46;34.3;;;30.6;;
79592;SDS011;69074;45.164;9.704;2024-03-17T00:52:11;34.3;;;30.6;;
79592;SDS011;69074;45.164;9.704;2024-03-17T00:54:36;34.3;;;30.6;;
79592;SDS011;69074;45.164;9.704;2024-03-17T00:57:01;34.3;;;30.6;;
79592;SDS011;69074;45.164;9.704;2024-03-17T00:59:26;34.3;;;30.6;;
79592;SDS011;69074;45.164;9.704;2024-03-17T01:01:51;50.1;;;43.8;;
79592;SDS011;69074;45.164;9.704;2024-03-17T01:04:16;50.1;;;43.8;;
79592;SDS011;69074;45.164;9.704;2024-03-17T01:06:41;50.1;;;43.8;;
79592;SDS011;69074;45.164;9.704;2024-03-17T01:09:06;50.1;;;43.8;;
79592;SDS011;69074;45.164;9.704;2024-03-17T01:11:31;50.1;;;43.8;;
79592;SDS011;69074;45.164;9.704;2024-03-17T01:13:56;50.1;;;43.8;;
79592;SDS011;69074;45.164;9.704;2024-03-17T01:16:21;50.0;;;42.0;;
79592;SDS011;69074;45.164;9.704;2024-03-17T01:18:46;50.0;;;42.0;;
79592;SDS011;69074;45.164;9.704;2024-03-17T01:21:11;50.0;;;42.0;;
79592;SDS011;69074;45.164;9.704;2024-03-17T01:23:36;50.0;;;42.0;;
79592;SDS011;69074;45.164;9.704;2024-03-17T01:26:01;50.0;;;42.0;;
79592;SDS011;69074;45.164;9.704;2024-03-17T01:28:26;50.0;;;42.0;;
79592;SDS011;69074;45.164;9.704;2024-03-17T01:30:51;48.3;;;42.7;;
79592;SDS011;69074;45.164;9.704;2024-03-17T01:33:16;48.3;;;42.7;;
79592;SDS011;69074;45.164;9.704;2024-03-17T01:35:41;48.3;;;42.7;;
79592;SDS011;69074;45.164;9.704;2024-03-17T01:38:06;48.3;;;42.7;;
79592;SDS011;69074;45.164;9.704;2024-03-17T01:40:31;48.3;;;42.7;;
79592;SDS011;69074;45.164;9.704;2024-03-17T01:42:56;48.3;;;42.7;;
79592;SDS011;69074;45.164;9.704;2024-03-17T01:45:25;48.3;;;42.7;;
79592;SDS011;69074;45.164;9.704;2024-03-17T01:47:46;41.3;;;36.7;;
79592;SDS011;69074;45.164;9.704;2024-03-17T01:50:11;41.3;;;36.7;;
79592;SDS011;69074;45.164;9.704;2024-03-17T01:52:36;41.3;;;36.7;;
79592;SDS011;69074;45.164;9.704;2024-03-17T01:55:01;41.3;;;36.7;;
79592;SDS011;69074;45.164;9.704;2024-03-17T01:57:26;41.3;;;36.7;;
79592;SDS011;69074;45.164;9.704;2024-03-17T01:59:51;41.3;;;36.7;;
79592;SDS011;69074;45.164;9.704;2024-03-17T02:02:16;34.6;;;30.9;;
79592;SDS011;69074;45.164;9.704;2024-03-17T02:04:41;34.6;;;30.9;;
79592;SDS011;69074;45.164;9.704;2024-03-17T02:07:06;34.6;;;30.9;;
79592;SDS011;69074;45.164;9.704;2024-03-17T02:09:31;34.6;;;30.9;;
79592;SDS011;69074;45.164;9.704;2024-03-17T02:11:56;34.6;;;30.9;;
79592;SDS011;69074;45.164;9.704;2024-03-17T02:14:21;34.6;;;30.9;;
79592;SDS011;69074;45.164;9.704;2024-03-17T02:16:46;28.0;;;25.0;;
79592;SDS011;69074;45.164;9.704;2024-03-17T02:19:11;28.0;;;25.0;;
79592;SDS011;69074;45.164;9.704;2024-03-17T02:21:36;28.0;;;25.0;;
79592;SDS011;69074;45.164;9.704;2024-03-17T02:24:01;28.0;;;25.0;;
79592;SDS011;69074;45.164;9.704;2024-03-17T02:26:27;28.0;;;25.0;;
79592;SDS011;69074;45.164;9.704;2024-03-17T02:28:51;28.0;;;25.0;;
79592;SDS011;69074;45.164;9.704;2024-03-17T02:31:17;26.6;;;23.8;;
79592;SDS011;69074;45.164;9.704;2024-03-17T02:33:41;26.6;;;23.8;;
79592;SDS011;69074;45.164;9.704;2024-03-17T02:36:06;26.6;;;23.8;;
79592;SDS011;69074;45.164;9.704;2024-03-17T02:38:31;26.6;;;23.8;;
79592;SDS011;69074;45.164;9.704;2024-03-17T02:40:56;26.6;;;23.8;;
79592;SDS011;69074;45.164;9.704;2024-03-17T02:43:21;26.6;;;23.8;;
79592;SDS011;69074;45.164;9.704;2024-03-17T02:45:46;25.3;;;22.6;;
79592;SDS011;69074;45.164;9.704;2024-03-17T02:48:11;25.3;;;22.6;;
79592;SDS011;69074;45.164;9.704;2024-03-17T02:50:36;25.3;;;22.6;;
79592;SDS011;69074;45.164;9.704;2024-03-17T02:53:01;25.3;;;22.6;;
79592;SDS011;69074;45.164;9.704;2024-03-17T02:55:26;25.3;;;22.6;;
79592;SDS011;69074;45.164;9.704;2024-03-17T02:57:51;25.3;;;22.6;;
79592;SDS011;69074;45.164;9.704;2024-03-17T03:00:16;25.3;;;22.6;;
79592;SDS011;69074;45.164;9.704;2024-03-17T03:02:41;23.2;;;20.7;;
79592;SDS011;69074;45.164;9.704;2024-03-17T03:05:06;23.2;;;20.7;;
79592;SDS011;69074;45.164;9.704;2024-03-17T03:07:31;23.2;;;20.7;;
79592;SDS011;69074;45.164;9.704;2024-03-17T03:09:56;23.2;;;20.7;;
79592;SDS011;69074;45.164;9.704;2024-03-17T03:12:21;23.2;;;20.7;;
79592;SDS011;69074;45.164;9.704;2024-03-17T03:14:46;23.2;;;20.7;;
79592;SDS011;69074;45.164;9.704;2024-03-17T03:17:11;21.8;;;19.4;;
79592;SDS011;69074;45.164;9.704;2024-03-17T03:19:36;21.8;;;19.4;;
79592;SDS011;69074;45.164;9.704;2024-03-17T03:22:01;21.8;;;19.4;;
79592;SDS011;69074;45.164;9.704;2024-03-17T03:24:26;21.8;;;19.4;;
79592;SDS011;69074;45.164;9.704;2024-03-17T03:26:51;21.8;;;19.4;;
79592;SDS011;69074;45.164;9.704;2024-03-17T03:29:16;21.8;;;19.4;;
79592;SDS011;69074;45.164;9.704;2024-03-17T03:31:41;19.9;;;17.7;;
79592;SDS011;69074;45.164;9.704;2024-03-17T03:34:06;19.9;;;17.7;;
79592;SDS011;69074;45.164;9.704;2024-03-17T03:36:31;19.9;;;17.7;;
79592;SDS011;69074;45.164;9.704;2024-03-17T03:38:56;19.9;;;17.7;;
79592;SDS011;69074;45.164;9.704;2024-03-17T03:41:22;19.9;;;17.7;;
79592;SDS011;69074;45.164;9.704;2024-03-17T03:43:46;19.9;;;17.7;;
79592;SDS011;69074;45.164;9.704;2024-03-17T03:46:11;19.2;;;17.1;;
79592;SDS011;69074;45.164;9.704;2024-03-17T03:48:36;19.2;;;17.1;;
79592;SDS011;69074;45.164;9.704;2024-03-17T03:51:03;19.2;;;17.1;;
79592;SDS011;69074;45.164;9.704;2024-03-17T03:53:26;19.2;;;17.1;;
79592;SDS011;69074;45.164;9.704;2024-03-17T03:55:51;19.2;;;17.1;;
79592;SDS011;69074;45.164;9.704;2024-03-17T03:58:16;19.2;;;17.1;;
79592;SDS011;69074;45.164;9.704;2024-03-17T04:00:41;18.0;;;16.1;;
79592;SDS011;69074;45.164;9.704;2024-03-17T04:03:07;18.0;;;16.1;;
79592;SDS011;69074;45.164;9.704;2024-03-17T04:05:32;18.0;;;16.1;;
79592;SDS011;69074;45.164;9.704;2024-03-17T04:07:57;18.0;;;16.1;;
79592;SDS011;69074;45.164;9.704;2024-03-17T04:10:21;18.0;;;16.1;;
79592;SDS011;69074;45.164;9.704;2024-03-17T04:12:46;18.0;;;16.1;;
79592;SDS011;69074;45.164;9.704;2024-03-17T04:15:11;18.0;;;16.1;;
79592;SDS011;69074;45.164;9.704;2024-03-17T04:17:37;18.8;;;16.8;;
79592;SDS011;69074;45.164;9.704;2024-03-17T04:20:02;18.8;;;16.8;;
79592;SDS011;69074;45.164;9.704;2024-03-17T04:22:27;18.8;;;16.8;;
79592;SDS011;69074;45.164;9.704;2024-03-17T04:24:52;18.8;;;16.8;;
79592;SDS011;69074;45.164;9.704;2024-03-17T04:27:17;18.8;;;16.8;;
79592;SDS011;69074;45.164;9.704;2024-03-17T04:29:42;18.8;;;16.8;;
79592;SDS011;69074;45.164;9.704;2024-03-17T04:32:07;18.7;;;15.4;;
79592;SDS011;69074;45.164;9.704;2024-03-17T04:34:32;18.7;;;15.4;;
79592;SDS011;69074;45.164;9.704;2024-03-17T04:36:57;18.7;;;15.4;;
79592;SDS011;69074;45.164;9.704;2024-03-17T04:39:22;18.7;;;15.4;;
79592;SDS011;69074;45.164;9.704;2024-03-17T04:41:47;18.7;;;15.4;;
79592;SDS011;69074;45.164;9.704;2024-03-17T04:44:12;18.7;;;15.4;;
79592;SDS011;69074;45.164;9.704;2024-03-17T04:46:37;18.1;;;16.0;;
79592;SDS011;69074;45.164;9.704;2024-03-17T04:49:02;18.1;;;16.0;;
79592;SDS011;69074;45.164;9.704;2024-03-17T04:51:27;18.1;;;16.0;;
79592;SDS011;69074;45.164;9.704;2024-03-17T04:53:52;18.1;;;16.0;;
79592;SDS011;69074;45.164;9.704;2024-03-17T04:56:17;18.1;;;16.0;;
79592;SDS011;69074;45.164;9.704;2024-03-17T04:58:42;18.1;;;16.0;;
79592;SDS011;69074;45.164;9.704;2024-03-17T05:01:07;19.5;;;16.6;;
79592;SDS011;69074;45.164;9.704;2024-03-17T05:03:32;19.5;;;16.6;;
79592;SDS011;69074;45.164;9.704;2024-03-17T05:05:58;19.5;;;16.6;;
79592;SDS011;69074;45.164;9.704;2024-03-17T05:08:22;19.5;;;16.6;;
79592;SDS011;69074;45.164;9.704;2024-03-17T05:10:47;19.5;;;16.6;;
79592;SDS011;69074;45.164;9.704;2024-03-17T05:13:12;19.5;;;16.6;;
79592;SDS011;69074;45.164;9.704;2024-03-17T05:15:37;18.1;;;15.8;;
79592;SDS011;69074;45.164;9.704;2024-03-17T05:18:02;18.1;;;15.8;;
79592;SDS011;69074;45.164;9.704;2024-03-17T05:20:27;18.1;;;15.8;;
79592;SDS011;69074;45.164;9.704;2024-03-17T05:22:52;18.1;;;15.8;;
79592;SDS011;69074;45.164;9.704;2024-03-17T05:25:17;18.1;;;15.8;;
79592;SDS011;69074;45.164;9.704;2024-03-17T05:27:42;18.1;;;15.8;;
79592;SDS011;69074;45.164;9.704;2024-03-17T05:30:07;18.1;;;15.8;;
79592;SDS011;69074;45.164;9.704;2024-03-17T05:32:32;17.9;;;15.6;;
79592;SDS011;69074;45.164;9.704;2024-03-17T05:34:57;17.9;;;15.6;;
79592;SDS011;69074;45.164;9.704;2024-03-17T05:37:22;17.9;;;15.6;;
79592;SDS011;69074;45.164;9.704;2024-03-17T05:39:47;17.9;;;15.6;;
79592;SDS011;69074;45.164;9.704;2024-03-17T05:42:12;17.9;;;15.6;;
79592;SDS011;69074;45.164;9.704;2024-03-17T05:44:37;17.9;;;15.6;;
79592;SDS011;69074;45.164;9.704;2024-03-17T05:47:02;16.8;;;15.0;;
79592;SDS011;69074;45.164;9.704;2024-03-17T05:49:27;16.8;;;15.0;;
79592;SDS011;69074;45.164;9.704;2024-03-17T05:51:52;16.8;;;15.0;;
79592;SDS011;69074;45.164;9.704;2024-03-17T05:54:17;16.8;;;15.0;;
79592;SDS011;69074;45.164;9.704;2024-03-17T05:56:42;16.8;;;15.0;;
79592;SDS011;69074;45.164;9.704;2024-03-17T05:59:07;16.8;;;15.0;;
79592;SDS011;69074;45.164;9.704;2024-03-17T06:01:32;16.8;;;15.1;;
79592;SDS011;69074;45.164;9.704;2024-03-17T06:03:57;16.8;;;15.1;;
79592;SDS011;69074;45.164;9.704;2024-03-17T06:06:22;16.8;;;15.1;;
79592;SDS011;69074;45.164;9.704;2024-03-17T06:08:47;16.8;;;15.1;;
79592;SDS011;69074;45.164;9.704;2024-03-17T06:11:12;16.8;;;15.1;;
79592;SDS011;69074;45.164;9.704;2024-03-17T06:13:37;16.8;;;15.1;;
79592;SDS011;69074;45.164;9.704;2024-03-17T06:16:02;15.4;;;13.6;;
79592;SDS011;69074;45.164;9.704;2024-03-17T06:18:27;15.4;;;13.6;;
79592;SDS011;69074;45.164;9.704;2024-03-17T06:20:52;15.4;;;13.6;;
79592;SDS011;69074;45.164;9.704;2024-03-17T06:23:17;15.4;;;13.6;;
79592;SDS011;69074;45.164;9.704;2024-03-17T06:25:42;15.4;;;13.6;;
79592;SDS011;69074;45.164;9.704;2024-03-17T06:28:07;15.4;;;13.6;;
79592;SDS011;69074;45.164;9.704;2024-03-17T06:30:32;18.6;;;11.7;;
79592;SDS011;69074;45.164;9.704;2024-03-17T06:32:57;18.6;;;11.7;;
79592;SDS011;69074;45.164;9.704;2024-03-17T06:35:22;18.6;;;11.7;;
79592;SDS011;69074;45.164;9.704;2024-03-17T06:37:47;18.6;;;11.7;;
79592;SDS011;69074;45.164;9.704;2024-03-17T06:40:13;18.6;;;11.7;;
79592;SDS011;69074;45.164;9.704;2024-03-17T06:42:37;18.6;;;11.7;;
79592;SDS011;69074;45.164;9.704;2024-03-17T06:45:02;18.6;;;11.7;;
79592;SDS011;69074;45.164;9.704;2024-03-17T06:47:27;13.0;;;11.3;;
79592;SDS011;69074;45.164;9.704;2024-03-17T06:49:52;13.0;;;11.3;;
79592;SDS011;69074;45.164;9.704;2024-03-17T06:52:17;13.0;;;11.3;;
79592;SDS011;69074;45.164;9.704;2024-03-17T06:54:42;13.0;;;11.3;;
79592;SDS011;69074;45.164;9.704;2024-03-17T06:57:07;13.0;;;11.3;;
79592;SDS011;69074;45.164;9.704;2024-03-17T06:59:32;13.0;;;11.3;;
79592;SDS011;69074;45.164;9.704;2024-03-17T07:01:57;12.2;;;10.0;;
79592;SDS011;69074;45.164;9.704;2024-03-17T07:04:22;12.2;;;10.0;;
79592;SDS011;69074;45.164;9.704;2024-03-17T07:06:47;12.2;;;10.0;;
79592;SDS011;69074;45.164;9.704;2024-03-17T07:09:12;12.2;;;10.0;;
79592;SDS011;69074;45.164;9.704;2024-03-17T07:11:37;12.2;;;10.0;;
79592;SDS011;69074;45.164;9.704;2024-03-17T07:14:02;12.2;;;10.0;;
79592;SDS011;69074;45.164;9.704;2024-03-17T07:16:27;8.8;;;7.9;;
79592;SDS011;69074;45.164;9.704;2024-03-17T07:18:52;8.8;;;7.9;;
79592;SDS011;69074;45.164;9.704;2024-03-17T07:21:17;8.8;;;7.9;;
79592;SDS011;69074;45.164;9.704;2024-03-17T07:23:42;8.8;;;7.9;;
79592;SDS011;69074;45.164;9.704;2024-03-17T07:26:07;8.8;;;7.9;;
79592;SDS011;69074;45.164;9.704;2024-03-17T07:28:32;8.8;;;7.9;;
79592;SDS011;69074;45.164;9.704;2024-03-17T07:30:57;8.5;;;7.6;;
79592;SDS011;69074;45.164;9.704;2024-03-17T07:33:22;8.5;;;7.6;;
79592;SDS011;69074;45.164;9.704;2024-03-17T07:35:48;8.5;;;7.6;;
79592;SDS011;69074;45.164;9.704;2024-03-17T07:38:12;8.5;;;7.6;;
79592;SDS011;69074;45.164;9.704;2024-03-17T07:40:37;8.5;;;7.6;;
79592;SDS011;69074;45.164;9.704;2024-03-17T07:43:02;8.5;;;7.6;;
79592;SDS011;69074;45.164;9.704;2024-03-17T07:45:27;8.5;;;7.6;;
79592;SDS011;69074;45.164;9.704;2024-03-17T07:47:52;8.7;;;7.7;;
79592;SDS011;69074;45.164;9.704;2024-03-17T07:50:17;8.7;;;7.7;;
79592;SDS011;69074;45.164;9.704;2024-03-17T07:52:42;8.7;;;7.7;;
79592;SDS011;69074;45.164;9.704;2024-03-17T07:55:07;8.7;;;7.7;;
79592;SDS011;69074;45.164;9.704;2024-03-17T07:57:32;8.7;;;7.7;;
79592;SDS011;69074;45.164;9.704;2024-03-17T07:59:57;8.7;;;7.7;;
79592;SDS011;69074;45.164;9.704;2024-03-17T08:02:22;8.5;;;7.5;;
79592;SDS011;69074;45.164;9.704;2024-03-17T08:04:47;8.5;;;7.5;;
79592;SDS011;69074;45.164;9.704;2024-03-17T08:07:12;8.5;;;7.5;;
79592;SDS011;69074;45.164;9.704;2024-03-17T08:09:37;8.5;;;7.5;;
79592;SDS011;69074;45.164;9.704;2024-03-17T08:12:02;8.5;;;7.5;;
79592;SDS011;69074;45.164;9.704;2024-03-17T08:14:27;8.5;;;7.5;;
79592;SDS011;69074;45.164;9.704;2024-03-17T08:16:52;24.4;;;20.3;;
79592;SDS011;69074;45.164;9.704;2024-03-17T08:19:17;24.4;;;20.3;;
79592;SDS011;69074;45.164;9.704;2024-03-17T08:21:42;24.4;;;20.3;;
79592;SDS011;69074;45.164;9.704;2024-03-17T08:24:07;24.4;;;20.3;;
79592;SDS011;69074;45.164;9.704;2024-03-17T08:26:32;24.4;;;20.3;;
79592;SDS011;69074;45.164;9.704;2024-03-17T08:28:57;24.4;;;20.3;;
79592;SDS011;69074;45.164;9.704;2024-03-17T08:31:22;24.0;;;19.6;;
79592;SDS011;69074;45.164;9.704;2024-03-17T08:33:47;24.0;;;19.6;;
79592;SDS011;69074;45.164;9.704;2024-03-17T08:36:12;24.0;;;19.6;;
79592;SDS011;69074;45.164;9.704;2024-03-17T08:38:37;24.0;;;19.6;;
79592;SDS011;69074;45.164;9.704;2024-03-17T08:41:02;24.0;;;19.6;;
79592;SDS011;69074;45.164;9.704;2024-03-17T08:43:27;24.0;;;19.6;;
79592;SDS011;69074;45.164;9.704;2024-03-17T08:45:55;26.2;;;18.9;;
79592;SDS011;69074;45.164;9.704;2024-03-17T08:48:17;26.2;;;18.9;;
79592;SDS011;69074;45.164;9.704;2024-03-17T08:50:42;26.2;;;18.9;;
79592;SDS011;69074;45.164;9.704;2024-03-17T08:53:07;26.2;;;18.9;;
79592;SDS011;69074;45.164;9.704;2024-03-17T08:55:32;26.2;;;18.9;;
79592;SDS011;69074;45.164;9.704;2024-03-17T08:57:57;26.2;;;18.9;;
79592;SDS011;69074;45.164;9.704;2024-03-17T09:00:22;26.2;;;18.9;;
79592;SDS011;69074;45.164;9.704;2024-03-17T09:02:47;26.8;;;17.6;;
79592;SDS011;69074;45.164;9.704;2024-03-17T09:05:12;26.8;;;17.6;;
79592;SDS011;69074;45.164;9.704;2024-03-17T09:07:37;26.8;;;17.6;;
79592;SDS011;69074;45.164;9.704;2024-03-17T09:10:02;26.8;;;17.6;;
79592;SDS011;69074;45.164;9.704;2024-03-17T09:12:27;26.8;;;17.6;;
79592;SDS011;69074;45.164;9.704;2024-03-17T09:14:52;26.8;;;17.6;;
79592;SDS011;69074;45.164;9.704;2024-03-17T09:17:17;24.7;;;15.9;;
79592;SDS011;69074;45.164;9.704;2024-03-17T09:19:42;24.7;;;15.9;;
79592;SDS011;69074;45.164;9.704;2024-03-17T09:22:07;24.7;;;15.9;;
79592;SDS011;69074;45.164;9.704;2024-03-17T09:24:32;24.7;;;15.9;;
79592;SDS011;69074;45.164;9.704;2024-03-17T09:26:57;24.7;;;15.9;;
79592;SDS011;69074;45.164;9.704;2024-03-17T09:29:22;24.7;;;15.9;;
79592;SDS011;69074;45.164;9.704;2024-03-17T09:31:47;21.1;;;14.6;;
79592;SDS011;69074;45.164;9.704;2024-03-17T09:34:12;21.1;;;14.6;;
79592;SDS011;69074;45.164;9.704;2024-03-17T09:36:37;21.1;;;14.6;;
79592;SDS011;69074;45.164;9.704;2024-03-17T09:39:02;21.1;;;14.6;;
79592;SDS011;69074;45.164;9.704;2024-03-17T09:41:27;21.1;;;14.6;;
79592;SDS011;69074;45.164;9.704;2024-03-17T09:43:53;21.1;;;14.6;;
79592;SDS011;69074;45.164;9.704;2024-03-17T09:46:17;23.7;;;13.6;;
79592;SDS011;69074;45.164;9.704;2024-03-17T09:48:42;23.7;;;13.6;;
79592;SDS011;69074;45.164;9.704;2024-03-17T09:51:07;23.7;;;13.6;;
79592;SDS011;69074;45.164;9.704;2024-03-17T09:53:33;23.7;;;13.6;;
79592;SDS011;69074;45.164;9.704;2024-03-17T09:55:58;23.7;;;13.6;;
79592;SDS011;69074;45.164;9.704;2024-03-17T09:58:22;23.7;;;13.6;;
79592;SDS011;69074;45.164;9.704;2024-03-17T10:00:47;19.7;;;14.3;;
79592;SDS011;69074;45.164;9.704;2024-03-17T10:03:13;19.7;;;14.3;;
79592;SDS011;69074;45.164;9.704;2024-03-17T10:05:38;19.7;;;14.3;;
79592;SDS011;69074;45.164;9.704;2024-03-17T10:08:02;19.7;;;14.3;;
79592;SDS011;69074;45.164;9.704;2024-03-17T10:10:27;19.7;;;14.3;;
79592;SDS011;69074;45.164;9.704;2024-03-17T10:12:52;19.7;;;14.3;;
79592;SDS011;69074;45.164;9.704;2024-03-17T10:15:18;19.7;;;14.3;;
79592;SDS011;69074;45.164;9.704;2024-03-17T10:17:42;18.8;;;12.4;;
79592;SDS011;69074;45.164;9.704;2024-03-17T10:20:15;18.8;;;12.4;;
79592;SDS011;69074;45.164;9.704;2024-03-17T10:22:32;18.8;;;12.4;;
79592;SDS011;69074;45.164;9.704;2024-03-17T10:24:59;18.8;;;12.4;;
79592;SDS011;69074;45.164;9.704;2024-03-17T10:27:22;18.8;;;12.4;;
79592;SDS011;69074;45.164;9.704;2024-03-17T10:29:47;18.8;;;12.4;;
79592;SDS011;69074;45.164;9.704;2024-03-17T10:32:13;16.1;;;12.0;;
79592;SDS011;69074;45.164;9.704;2024-03-17T10:34:37;16.1;;;12.0;;
79592;SDS011;69074;45.164;9.704;2024-03-17T10:37:05;16.1;;;12.0;;
79592;SDS011;69074;45.164;9.704;2024-03-17T10:39:27;16.1;;;12.0;;
79592;SDS011;69074;45.164;9.704;2024-03-17T10:41:52;16.1;;;12.0;;
79592;SDS011;69074;45.164;9.704;2024-03-17T10:44:17;16.1;;;12.0;;
79592;SDS011;69074;45.164;9.704;2024-03-17T10:46:42;18.0;;;12.7;;
79592;SDS011;69074;45.164;9.704;2024-03-17T10:49:08;18.0;;;12.7;;
79592;SDS011;69074;45.164;9.704;2024-03-17T10:51:33;18.0;;;12.7;;
79592;SDS011;69074;45.164;9.704;2024-03-17T10:53:57;18.0;;;12.7;;
79592;SDS011;69074;45.164;9.704;2024-03-17T10:56:22;18.0;;;12.7;;
79592;SDS011;69074;45.164;9.704;2024-03-17T10:58:48;18.0;;;12.7;;
79592;SDS011;69074;45.164;9.704;2024-03-17T11:01:13;15.7;;;10.9;;
79592;SDS011;69074;45.164;9.704;2024-03-17T11:03:38;15.7;;;10.9;;
79592;SDS011;69074;45.164;9.704;2024-03-17T11:06:03;15.7;;;10.9;;
79592;SDS011;69074;45.164;9.704;2024-03-17T11:08:28;15.7;;;10.9;;
79592;SDS011;69074;45.164;9.704;2024-03-17T11:10:53;15.7;;;10.9;;
79592;SDS011;69074;45.164;9.704;2024-03-17T11:13:25;15.7;;;10.9;;
79592;SDS011;69074;45.164;9.704;2024-03-17T11:15:43;12.0;;;10.7;;
79592;SDS011;69074;45.164;9.704;2024-03-17T11:18:39;12.0;;;10.7;;
79592;SDS011;69074;45.164;9.704;2024-03-17T11:20:33;12.0;;;10.7;;
79592;SDS011;69074;45.164;9.704;2024-03-17T11:22:58;12.0;;;10.7;;
79592;SDS011;69074;45.164;9.704;2024-03-17T11:25:36;12.0;;;10.7;;
79592;SDS011;69074;45.164;9.704;2024-03-17T11:27:48;12.0;;;10.7;;
79592;SDS011;69074;45.164;9.704;2024-03-17T11:30:45;12.0;;;10.7;;
79592;SDS011;69074;45.164;9.704;2024-03-17T11:32:38;13.3;;;10.4;;
79592;SDS011;69074;45.164;9.704;2024-03-17T11:35:22;13.3;;;10.4;;
79592;SDS011;69074;45.164;9.704;2024-03-17T11:37:43;13.3;;;10.4;;
79592;SDS011;69074;45.164;9.704;2024-03-17T11:39:54;13.3;;;10.4;;
79592;SDS011;69074;45.164;9.704;2024-03-17T11:42:18;13.3;;;10.4;;
79592;SDS011;69074;45.164;9.704;2024-03-17T11:44:43;13.3;;;10.4;;
79592;SDS011;69074;45.164;9.704;2024-03-17T11:47:08;12.1;;;10.0;;
79592;SDS011;69074;45.164;9.704;2024-03-17T11:49:33;12.1;;;10.0;;
79592;SDS011;69074;45.164;9.704;2024-03-17T11:51:58;12.1;;;10.0;;
79592;SDS011;69074;45.164;9.704;2024-03-17T11:54:23;12.1;;;10.0;;
79592;SDS011;69074;45.164;9.704;2024-03-17T11:56:48;12.1;;;10.0;;
79592;SDS011;69074;45.164;9.704;2024-03-17T11:59:13;12.1;;;10.0;;
79592;SDS011;69074;45.164;9.704;2024-03-17T12:01:38;12.5;;;10.1;;
79592;SDS011;69074;45.164;9.704;2024-03-17T12:04:03;12.5;;;10.1;;
79592;SDS011;69074;45.164;9.704;2024-03-17T12:06:28;12.5;;;10.1;;
79592;SDS011;69074;45.164;9.704;2024-03-17T12:08:53;12.5;;;10.1;;
79592;SDS011;69074;45.164;9.704;2024-03-17T12:11:18;12.5;;;10.1;;
79592;SDS011;69074;45.164;9.704;2024-03-17T12:13:43;12.5;;;10.1;;
79592;SDS011;69074;45.164;9.704;2024-03-17T12:16:11;11.3;;;9.1;;
79592;SDS011;69074;45.164;9.704;2024-03-17T12:18:33;11.3;;;9.1;;
79592;SDS011;69074;45.164;9.704;2024-03-17T12:20:58;11.3;;;9.1;;
79592;SDS011;69074;45.164;9.704;2024-03-17T12:23:23;11.3;;;9.1;;
79592;SDS011;69074;45.164;9.704;2024-03-17T12:25:48;11.3;;;9.1;;
79592;SDS011;69074;45.164;9.704;2024-03-17T12:28:13;11.3;;;9.1;;
79592;SDS011;69074;45.164;9.704;2024-03-17T12:30:38;11.6;;;9.3;;
79592;SDS011;69074;45.164;9.704;2024-03-17T12:33:03;11.6;;;9.3;;
79592;SDS011;69074;45.164;9.704;2024-03-17T12:35:28;11.6;;;9.3;;
79592;SDS011;69074;45.164;9.704;2024-03-17T12:37:53;11.6;;;9.3;;
79592;SDS011;69074;45.164;9.704;2024-03-17T12:40:18;11.6;;;9.3;;
79592;SDS011;69074;45.164;9.704;2024-03-17T12:42:46;11.6;;;9.3;;
79592;SDS011;69074;45.164;9.704;2024-03-17T12:45:09;11.6;;;9.3;;
79592;SDS011;69074;45.164;9.704;2024-03-17T12:47:33;12.2;;;9.4;;
79592;SDS011;69074;45.164;9.704;2024-03-17T12:49:58;12.2;;;9.4;;
79592;SDS011;69074;45.164;9.704;2024-03-17T12:52:23;12.2;;;9.4;;
79592;SDS011;69074;45.164;9.704;2024-03-17T12:55:04;12.2;;;9.4;;
79592;SDS011;69074;45.164;9.704;2024-03-17T12:57:13;12.2;;;9.4;;
79592;SDS011;69074;45.164;9.704;2024-03-17T12:59:38;12.2;;;9.4;;
79592;SDS011;69074;45.164;9.704;2024-03-17T13:02:03;10.0;;;8.3;;
79592;SDS011;69074;45.164;9.704;2024-03-17T13:04:28;10.0;;;8.3;;
79592;SDS011;69074;45.164;9.704;2024-03-17T13:06:53;10.0;;;8.3;;
79592;SDS011;69074;45.164;9.704;2024-03-17T13:09:18;10.0;;;8.3;;
79592;SDS011;69074;45.164;9.704;2024-03-17T13:11:43;10.0;;;8.3;;
79592;SDS011;69074;45.164;9.704;2024-03-17T13:14:08;10.0;;;8.3;;
79592;SDS011;69074;45.164;9.704;2024-03-17T13:16:33;9.5;;;8.1;;
79592;SDS011;69074;45.164;9.704;2024-03-17T13:18:58;9.5;;;8.1;;
79592;SDS011;69074;45.164;9.704;2024-03-17T13:21:23;9.5;;;8.1;;
79592;SDS011;69074;45.164;9.704;2024-03-17T13:23:48;9.5;;;8.1;;
79592;SDS011;69074;45.164;9.704;2024-03-17T13:26:13;9.5;;;8.1;;
79592;SDS011;69074;45.164;9.704;2024-03-17T13:28:38;9.5;;;8.1;;
79592;SDS011;69074;45.164;9.704;2024-03-17T13:31:03;10.0;;;8.2;;
79592;SDS011;69074;45.164;9.704;2024-03-17T13:33:28;10.0;;;8.2;;
79592;SDS011;69074;45.164;9.704;2024-03-17T13:35:53;10.0;;;8.2;;
79592;SDS011;69074;45.164;9.704;2024-03-17T13:38:18;10.0;;;8.2;;
79592;SDS011;69074;45.164;9.704;2024-03-17T13:40:43;10.0;;;8.2;;
79592;SDS011;69074;45.164;9.704;2024-03-17T13:43:09;10.0;;;8.2;;
79592;SDS011;69074;45.164;9.704;2024-03-17T13:45:36;9.0;;;7.8;;
79592;SDS011;69074;45.164;9.704;2024-03-17T13:47:58;9.0;;;7.8;;
79592;SDS011;69074;45.164;9.704;2024-03-17T13:50:23;9.0;;;7.8;;
79592;SDS011;69074;45.164;9.704;2024-03-17T13:52:48;9.0;;;7.8;;
79592;SDS011;69074;45.164;9.704;2024-03-17T13:55:14;9.0;;;7.8;;
79592;SDS011;69074;45.164;9.704;2024-03-17T13:57:38;9.0;;;7.8;;
79592;SDS011;69074;45.164;9.704;2024-03-17T14:00:03;9.0;;;7.8;;
79592;SDS011;69074;45.164;9.704;2024-03-17T14:02:28;8.8;;;7.5;;
79592;SDS011;69074;45.164;9.704;2024-03-17T14:04:53;8.8;;;7.5;;
79592;SDS011;69074;45.164;9.704;2024-03-17T14:07:18;8.8;;;7.5;;
79592;SDS011;69074;45.164;9.704;2024-03-17T14:09:43;8.8;;;7.5;;
79592;SDS011;69074;45.164;9.704;2024-03-17T14:12:08;8.8;;;7.5;;
79592;SDS011;69074;45.164;9.704;2024-03-17T14:14:33;8.8;;;7.5;;
79592;SDS011;69074;45.164;9.704;2024-03-17T14:16:58;11.5;;;9.1;;
79592;SDS011;69074;45.164;9.704;2024-03-17T14:19:24;11.5;;;9.1;;
79592;SDS011;69074;45.164;9.704;2024-03-17T14:21:48;11.5;;;9.1;;
79592;SDS011;69074;45.164;9.704;2024-03-17T14:24:13;11.5;;;9.1;;
79592;SDS011;69074;45.164;9.704;2024-03-17T14:26:38;11.5;;;9.1;;
79592;SDS011;69074;45.164;9.704;2024-03-17T14:29:03;11.5;;;9.1;;
79592;SDS011;69074;45.164;9.704;2024-03-17T14:31:31;11.3;;;10.2;;
79592;SDS011;69074;45.164;9.704;2024-03-17T14:33:53;11.3;;;10.2;;
79592;SDS011;69074;45.164;9.704;2024-03-17T14:36:18;11.3;;;10.2;;
79592;SDS011;69074;45.164;9.704;2024-03-17T14:38:43;11.3;;;10.2;;